logo dgac
Lunes 20 de Mayo del 2019
Buscar por aerodromo o helipuerto
Ingrese nombre de aeródromo, localidad o designador OACI:
TAF: TAF SCAR 201038Z 2012/2112 07004KT 9999 SCT040 TX20/2018Z TN15/2106Z BECMG 2014/2016 20010KT CAVOK BECMG 2102/2104 04004KT BKN035
TAF del 20/05/2019 a las 10:38 UTC
Período de validez: desde el 20 a las 12:00 UTC hasta el 21 a las 12:00 UTC
Viento: dirección 070 grados, velocidad 4 nudos
Visibilidad: 10 km o más
Nubes: Nubosidad parcial a 4000 pies sobre el nivel del aeródromo
Temperatura máxima: 20ºC el 20 a las 18:00 UTC
Temperatura mínima: 15ºC el 21 a las 06:00 UTC
Se espera un cambio entre las 14:00 UTC del 20 y las 16:00 UTC del 20, :
Viento: dirección 200 grados, velocidad 10 nudos
Visibilidad: 10 km o más,
    sin nubes bajo los 5.000 pies o bajo del MSA (Mínimo de Seguridad del Aeródromo),
    sin cumulonimbus, y sin fenómenos de tiempo significativo en el aeródromo o alrededores
Se espera un cambio entre las 02:00 UTC del 21 y las 04:00 UTC del 21, :
Viento: dirección 040 grados, velocidad 4 nudos
Nubes: Nublado a 3500 pies sobre el nivel del aeródromo